sensor_id;sensor_type;location;lat;lon;timestamp;P1;durP1;ratioP1;P2;durP2;ratioP2
18879;SDS011;9572;52.378;13.404;2022-08-01T00:00:16;4.32;;;2.53;;
18879;SDS011;9572;52.378;13.404;2022-08-01T00:02:44;6.07;;;2.60;;
18879;SDS011;9572;52.378;13.404;2022-08-01T00:05:11;6.05;;;2.45;;
18879;SDS011;9572;52.378;13.404;2022-08-01T00:07:38;3.78;;;2.53;;
18879;SDS011;9572;52.378;13.404;2022-08-01T00:10:06;4.22;;;2.47;;
18879;SDS011;9572;52.378;13.404;2022-08-01T00:12:35;6.43;;;2.53;;
18879;SDS011;9572;52.378;13.404;2022-08-01T00:15:03;2.50;;;2.30;;
18879;SDS011;9572;52.378;13.404;2022-08-01T00:17:31;2.80;;;2.17;;
18879;SDS011;9572;52.378;13.404;2022-08-01T00:19:59;3.58;;;2.55;;
18879;SDS011;9572;52.378;13.404;2022-08-01T00:22:27;4.15;;;2.53;;
18879;SDS011;9572;52.378;13.404;2022-08-01T00:24:54;6.22;;;2.97;;
18879;SDS011;9572;52.378;13.404;2022-08-01T00:27:21;4.28;;;2.50;;
18879;SDS011;9572;52.378;13.404;2022-08-01T00:29:48;2.85;;;2.58;;
18879;SDS011;9572;52.378;13.404;2022-08-01T00:32:15;3.63;;;2.70;;
18879;SDS011;9572;52.378;13.404;2022-08-01T00:34:42;6.93;;;2.72;;
18879;SDS011;9572;52.378;13.404;2022-08-01T00:37:10;7.78;;;3.10;;
18879;SDS011;9572;52.378;13.404;2022-08-01T00:39:37;3.58;;;2.65;;
18879;SDS011;9572;52.378;13.404;2022-08-01T00:42:05;10.02;;;3.10;;
18879;SDS011;9572;52.378;13.404;2022-08-01T00:44:33;5.43;;;2.95;;
18879;SDS011;9572;52.378;13.404;2022-08-01T00:47:00;3.50;;;2.67;;
18879;SDS011;9572;52.378;13.404;2022-08-01T00:49:27;5.47;;;2.70;;
18879;SDS011;9572;52.378;13.404;2022-08-01T00:51:54;4.57;;;3.20;;
18879;SDS011;9572;52.378;13.404;2022-08-01T00:54:25;4.55;;;2.60;;
18879;SDS011;9572;52.378;13.404;2022-08-01T00:56:52;3.55;;;2.92;;
18879;SDS011;9572;52.378;13.404;2022-08-01T00:59:20;5.25;;;2.90;;
18879;SDS011;9572;52.378;13.404;2022-08-01T01:01:48;4.88;;;2.97;;
18879;SDS011;9572;52.378;13.404;2022-08-01T01:04:15;2.85;;;2.60;;
18879;SDS011;9572;52.378;13.404;2022-08-01T01:06:44;4.07;;;2.75;;
18879;SDS011;9572;52.378;13.404;2022-08-01T01:11:54;4.80;;;3.13;;
18879;SDS011;9572;52.378;13.404;2022-08-01T01:14:29;3.10;;;2.90;;
18879;SDS011;9572;52.378;13.404;2022-08-01T01:17:00;3.85;;;3.22;;
18879;SDS011;9572;52.378;13.404;2022-08-01T01:19:32;4.25;;;3.10;;
18879;SDS011;9572;52.378;13.404;2022-08-01T01:22:17;3.97;;;2.97;;
18879;SDS011;9572;52.378;13.404;2022-08-01T01:25:07;5.75;;;2.97;;
18879;SDS011;9572;52.378;13.404;2022-08-01T01:27:49;3.25;;;3.05;;
18879;SDS011;9572;52.378;13.404;2022-08-01T01:30:25;3.17;;;2.88;;
18879;SDS011;9572;52.378;13.404;2022-08-01T01:32:55;6.75;;;2.97;;
18879;SDS011;9572;52.378;13.404;2022-08-01T01:35:28;4.55;;;3.25;;
18879;SDS011;9572;52.378;13.404;2022-08-01T01:38:00;3.75;;;3.10;;
18879;SDS011;9572;52.378;13.404;2022-08-01T01:40:31;5.43;;;2.92;;
18879;SDS011;9572;52.378;13.404;2022-08-01T01:42:59;4.07;;;3.30;;
18879;SDS011;9572;52.378;13.404;2022-08-01T01:45:28;5.30;;;2.85;;
18879;SDS011;9572;52.378;13.404;2022-08-01T01:47:55;4.60;;;2.80;;
18879;SDS011;9572;52.378;13.404;2022-08-01T01:50:24;3.70;;;2.88;;
18879;SDS011;9572;52.378;13.404;2022-08-01T01:52:52;3.47;;;3.17;;
18879;SDS011;9572;52.378;13.404;2022-08-01T01:55:21;3.38;;;2.80;;
18879;SDS011;9572;52.378;13.404;2022-08-01T01:57:51;3.38;;;3.08;;
18879;SDS011;9572;52.378;13.404;2022-08-01T02:00:20;4.72;;;3.20;;
18879;SDS011;9572;52.378;13.404;2022-08-01T02:02:49;3.40;;;3.03;;
18879;SDS011;9572;52.378;13.404;2022-08-01T02:05:18;3.25;;;2.95;;
18879;SDS011;9572;52.378;13.404;2022-08-01T02:07:47;3.85;;;3.08;;
18879;SDS011;9572;52.378;13.404;2022-08-01T02:10:15;3.50;;;3.20;;
18879;SDS011;9572;52.378;13.404;2022-08-01T02:12:44;6.00;;;3.20;;
18879;SDS011;9572;52.378;13.404;2022-08-01T02:15:15;3.60;;;2.90;;
18879;SDS011;9572;52.378;13.404;2022-08-01T02:17:45;4.40;;;3.05;;
18879;SDS011;9572;52.378;13.404;2022-08-01T02:20:16;3.80;;;3.38;;
18879;SDS011;9572;52.378;13.404;2022-08-01T02:22:44;6.10;;;2.97;;
18879;SDS011;9572;52.378;13.404;2022-08-01T02:25:17;2.97;;;2.72;;
18879;SDS011;9572;52.378;13.404;2022-08-01T02:27:50;3.35;;;2.92;;
18879;SDS011;9572;52.378;13.404;2022-08-01T02:30:25;3.55;;;2.88;;
18879;SDS011;9572;52.378;13.404;2022-08-01T02:32:59;4.40;;;3.17;;
18879;SDS011;9572;52.378;13.404;2022-08-01T02:35:33;3.33;;;3.03;;
18879;SDS011;9572;52.378;13.404;2022-08-01T02:38:03;3.20;;;2.90;;
18879;SDS011;9572;52.378;13.404;2022-08-01T02:40:32;4.97;;;3.13;;
18879;SDS011;9572;52.378;13.404;2022-08-01T02:43:03;3.47;;;3.10;;
18879;SDS011;9572;52.378;13.404;2022-08-01T02:45:32;3.28;;;2.90;;
18879;SDS011;9572;52.378;13.404;2022-08-01T02:48:03;4.10;;;3.00;;
18879;SDS011;9572;52.378;13.404;2022-08-01T02:50:43;4.05;;;3.05;;
18879;SDS011;9572;52.378;13.404;2022-08-01T02:53:13;3.28;;;2.97;;
18879;SDS011;9572;52.378;13.404;2022-08-01T02:55:42;3.15;;;2.67;;
18879;SDS011;9572;52.378;13.404;2022-08-01T02:58:12;6.35;;;2.90;;
18879;SDS011;9572;52.378;13.404;2022-08-01T03:00:41;5.57;;;3.10;;
18879;SDS011;9572;52.378;13.404;2022-08-01T03:03:11;3.45;;;3.00;;
18879;SDS011;9572;52.378;13.404;2022-08-01T03:05:45;3.17;;;2.92;;
18879;SDS011;9572;52.378;13.404;2022-08-01T03:08:14;3.65;;;3.28;;
18879;SDS011;9572;52.378;13.404;2022-08-01T03:10:43;3.60;;;3.30;;
18879;SDS011;9572;52.378;13.404;2022-08-01T03:13:11;3.28;;;2.97;;
18879;SDS011;9572;52.378;13.404;2022-08-01T03:15:41;4.60;;;3.28;;
18879;SDS011;9572;52.378;13.404;2022-08-01T03:18:10;4.03;;;3.15;;
18879;SDS011;9572;52.378;13.404;2022-08-01T03:20:38;3.80;;;3.08;;
18879;SDS011;9572;52.378;13.404;2022-08-01T03:23:08;4.00;;;3.60;;
18879;SDS011;9572;52.378;13.404;2022-08-01T03:25:38;3.50;;;3.20;;
18879;SDS011;9572;52.378;13.404;2022-08-01T03:28:08;3.67;;;3.38;;
18879;SDS011;9572;52.378;13.404;2022-08-01T03:30:39;3.65;;;3.35;;
18879;SDS011;9572;52.378;13.404;2022-08-01T03:33:08;8.02;;;3.90;;
18879;SDS011;9572;52.378;13.404;2022-08-01T03:35:37;6.00;;;3.70;;
18879;SDS011;9572;52.378;13.404;2022-08-01T03:38:10;5.65;;;3.53;;
18879;SDS011;9572;52.378;13.404;2022-08-01T03:40:40;3.90;;;3.60;;
18879;SDS011;9572;52.378;13.404;2022-08-01T03:43:11;4.18;;;3.45;;
18879;SDS011;9572;52.378;13.404;2022-08-01T03:45:46;4.82;;;3.38;;
18879;SDS011;9572;52.378;13.404;2022-08-01T03:48:17;4.18;;;3.70;;
18879;SDS011;9572;52.378;13.404;2022-08-01T03:50:48;4.18;;;3.78;;
18879;SDS011;9572;52.378;13.404;2022-08-01T03:53:19;4.60;;;3.25;;
18879;SDS011;9572;52.378;13.404;2022-08-01T03:55:48;3.67;;;3.35;;
18879;SDS011;9572;52.378;13.404;2022-08-01T03:58:16;3.80;;;3.40;;
18879;SDS011;9572;52.378;13.404;2022-08-01T04:00:43;4.95;;;3.92;;
18879;SDS011;9572;52.378;13.404;2022-08-01T04:03:11;4.63;;;4.18;;
18879;SDS011;9572;52.378;13.404;2022-08-01T04:05:40;4.40;;;3.50;;
18879;SDS011;9572;52.378;13.404;2022-08-01T04:08:07;6.75;;;3.88;;
18879;SDS011;9572;52.378;13.404;2022-08-01T04:10:35;4.13;;;3.60;;
18879;SDS011;9572;52.378;13.404;2022-08-01T04:13:03;3.72;;;3.40;;
18879;SDS011;9572;52.378;13.404;2022-08-01T04:15:30;7.30;;;4.13;;
18879;SDS011;9572;52.378;13.404;2022-08-01T04:17:56;6.00;;;4.00;;
18879;SDS011;9572;52.378;13.404;2022-08-01T04:20:23;4.32;;;3.92;;
18879;SDS011;9572;52.378;13.404;2022-08-01T04:22:50;5.55;;;4.05;;
18879;SDS011;9572;52.378;13.404;2022-08-01T04:25:20;4.20;;;3.80;;
18879;SDS011;9572;52.378;13.404;2022-08-01T04:27:52;4.28;;;3.58;;
18879;SDS011;9572;52.378;13.404;2022-08-01T04:30:21;5.38;;;4.03;;
18879;SDS011;9572;52.378;13.404;2022-08-01T04:32:52;4.18;;;3.83;;
18879;SDS011;9572;52.378;13.404;2022-08-01T04:35:21;6.30;;;4.15;;
18879;SDS011;9572;52.378;13.404;2022-08-01T04:37:50;3.92;;;3.63;;
18879;SDS011;9572;52.378;13.404;2022-08-01T04:40:18;4.20;;;3.80;;
18879;SDS011;9572;52.378;13.404;2022-08-01T04:42:47;8.00;;;4.03;;
18879;SDS011;9572;52.378;13.404;2022-08-01T04:45:17;3.75;;;3.40;;
18879;SDS011;9572;52.378;13.404;2022-08-01T04:47:44;4.28;;;3.70;;
18879;SDS011;9572;52.378;13.404;2022-08-01T04:50:12;4.50;;;4.10;;
18879;SDS011;9572;52.378;13.404;2022-08-01T04:52:40;4.78;;;4.28;;
18879;SDS011;9572;52.378;13.404;2022-08-01T04:55:08;7.53;;;4.57;;
18879;SDS011;9572;52.378;13.404;2022-08-01T04:57:36;4.88;;;3.85;;
18879;SDS011;9572;52.378;13.404;2022-08-01T05:00:06;5.88;;;4.30;;
18879;SDS011;9572;52.378;13.404;2022-08-01T05:02:36;4.82;;;4.40;;
18879;SDS011;9572;52.378;13.404;2022-08-01T05:05:04;6.75;;;4.60;;
18879;SDS011;9572;52.378;13.404;2022-08-01T05:07:31;5.15;;;4.55;;
18879;SDS011;9572;52.378;13.404;2022-08-01T05:10:01;6.25;;;4.30;;
18879;SDS011;9572;52.378;13.404;2022-08-01T05:12:28;4.97;;;3.92;;
18879;SDS011;9572;52.378;13.404;2022-08-01T05:14:56;6.45;;;4.35;;
18879;SDS011;9572;52.378;13.404;2022-08-01T05:17:23;4.60;;;3.83;;
18879;SDS011;9572;52.378;13.404;2022-08-01T05:19:52;4.88;;;4.38;;
18879;SDS011;9572;52.378;13.404;2022-08-01T05:22:19;7.50;;;4.30;;
18879;SDS011;9572;52.378;13.404;2022-08-01T05:24:45;4.70;;;4.30;;
18879;SDS011;9572;52.378;13.404;2022-08-01T05:27:13;5.97;;;3.90;;
18879;SDS011;9572;52.378;13.404;2022-08-01T05:29:40;5.55;;;4.95;;
18879;SDS011;9572;52.378;13.404;2022-08-01T05:32:06;5.22;;;4.72;;
18879;SDS011;9572;52.378;13.404;2022-08-01T05:34:34;8.75;;;4.45;;
18879;SDS011;9572;52.378;13.404;2022-08-01T05:37:02;4.03;;;3.67;;
18879;SDS011;9572;52.378;13.404;2022-08-01T05:39:29;7.22;;;3.97;;
18879;SDS011;9572;52.378;13.404;2022-08-01T05:41:56;4.82;;;3.65;;
18879;SDS011;9572;52.378;13.404;2022-08-01T05:44:23;3.60;;;3.30;;
18879;SDS011;9572;52.378;13.404;2022-08-01T05:46:51;5.35;;;3.63;;
18879;SDS011;9572;52.378;13.404;2022-08-01T05:49:18;3.72;;;2.95;;
18879;SDS011;9572;52.378;13.404;2022-08-01T05:51:45;3.30;;;3.00;;
18879;SDS011;9572;52.378;13.404;2022-08-01T05:54:13;3.35;;;3.05;;
18879;SDS011;9572;52.378;13.404;2022-08-01T05:56:40;5.22;;;3.17;;
18879;SDS011;9572;52.378;13.404;2022-08-01T05:59:07;3.22;;;2.90;;
18879;SDS011;9572;52.378;13.404;2022-08-01T06:01:34;3.90;;;3.00;;
18879;SDS011;9572;52.378;13.404;2022-08-01T06:04:01;3.35;;;3.05;;
18879;SDS011;9572;52.378;13.404;2022-08-01T06:06:28;2.90;;;2.70;;
18879;SDS011;9572;52.378;13.404;2022-08-01T06:08:55;3.50;;;2.72;;
18879;SDS011;9572;52.378;13.404;2022-08-01T06:11:23;2.88;;;2.67;;
18879;SDS011;9572;52.378;13.404;2022-08-01T06:13:50;2.90;;;2.70;;
18879;SDS011;9572;52.378;13.404;2022-08-01T06:16:18;2.97;;;2.67;;
18879;SDS011;9572;52.378;13.404;2022-08-01T06:18:45;2.40;;;2.20;;
18879;SDS011;9572;52.378;13.404;2022-08-01T06:21:12;3.20;;;2.80;;
18879;SDS011;9572;52.378;13.404;2022-08-01T06:23:39;5.20;;;2.75;;
18879;SDS011;9572;52.378;13.404;2022-08-01T06:26:07;2.63;;;2.45;;
18879;SDS011;9572;52.378;13.404;2022-08-01T06:28:35;3.65;;;2.53;;
18879;SDS011;9572;52.378;13.404;2022-08-01T06:31:03;2.88;;;2.63;;
18879;SDS011;9572;52.378;13.404;2022-08-01T06:33:30;3.80;;;2.08;;
18879;SDS011;9572;52.378;13.404;2022-08-01T06:35:57;2.42;;;2.22;;
18879;SDS011;9572;52.378;13.404;2022-08-01T06:38:24;4.00;;;2.65;;
18879;SDS011;9572;52.378;13.404;2022-08-01T06:40:51;2.72;;;2.50;;
18879;SDS011;9572;52.378;13.404;2022-08-01T06:43:18;2.95;;;2.75;;
18879;SDS011;9572;52.378;13.404;2022-08-01T06:45:46;2.83;;;2.60;;
18879;SDS011;9572;52.378;13.404;2022-08-01T06:48:13;5.40;;;3.20;;
18879;SDS011;9572;52.378;13.404;2022-08-01T06:50:40;4.75;;;3.20;;
18879;SDS011;9572;52.378;13.404;2022-08-01T06:53:07;4.55;;;2.83;;
18879;SDS011;9572;52.378;13.404;2022-08-01T06:55:34;2.95;;;2.53;;
18879;SDS011;9572;52.378;13.404;2022-08-01T06:58:01;4.43;;;2.50;;
18879;SDS011;9572;52.378;13.404;2022-08-01T07:00:27;2.30;;;2.10;;
18879;SDS011;9572;52.378;13.404;2022-08-01T07:02:56;2.45;;;2.25;;
18879;SDS011;9572;52.378;13.404;2022-08-01T07:05:25;1.67;;;1.58;;
18879;SDS011;9572;52.378;13.404;2022-08-01T07:07:52;3.25;;;2.13;;
18879;SDS011;9572;52.378;13.404;2022-08-01T07:10:19;2.72;;;1.65;;
18879;SDS011;9572;52.378;13.404;2022-08-01T07:12:46;2.70;;;1.98;;
18879;SDS011;9572;52.378;13.404;2022-08-01T07:15:13;1.80;;;1.70;;
18879;SDS011;9572;52.378;13.404;2022-08-01T07:17:41;1.98;;;1.85;;
18879;SDS011;9572;52.378;13.404;2022-08-01T07:20:11;2.58;;;2.00;;
18879;SDS011;9572;52.378;13.404;2022-08-01T07:22:38;2.65;;;1.70;;
18879;SDS011;9572;52.378;13.404;2022-08-01T07:25:06;1.73;;;1.50;;
18879;SDS011;9572;52.378;13.404;2022-08-01T07:27:34;2.15;;;1.80;;
18879;SDS011;9572;52.378;13.404;2022-08-01T07:30:01;1.95;;;1.85;;
18879;SDS011;9572;52.378;13.404;2022-08-01T07:32:28;2.30;;;2.13;;
18879;SDS011;9572;52.378;13.404;2022-08-01T07:34:56;4.10;;;2.22;;
18879;SDS011;9572;52.378;13.404;2022-08-01T07:37:24;2.40;;;2.20;;
18879;SDS011;9572;52.378;13.404;2022-08-01T07:39:51;1.75;;;1.65;;
18879;SDS011;9572;52.378;13.404;2022-08-01T07:42:18;1.70;;;1.60;;
18879;SDS011;9572;52.378;13.404;2022-08-01T07:44:45;2.10;;;1.90;;
18879;SDS011;9572;52.378;13.404;2022-08-01T07:47:12;2.65;;;2.20;;
18879;SDS011;9572;52.378;13.404;2022-08-01T07:49:40;2.58;;;1.90;;
18879;SDS011;9572;52.378;13.404;2022-08-01T07:52:07;1.98;;;1.88;;
18879;SDS011;9572;52.378;13.404;2022-08-01T07:54:35;2.80;;;2.10;;
18879;SDS011;9572;52.378;13.404;2022-08-01T07:57:02;2.53;;;2.30;;
18879;SDS011;9572;52.378;13.404;2022-08-01T07:59:30;2.20;;;2.00;;
18879;SDS011;9572;52.378;13.404;2022-08-01T08:01:57;2.08;;;1.98;;
18879;SDS011;9572;52.378;13.404;2022-08-01T08:04:24;2.25;;;2.05;;
18879;SDS011;9572;52.378;13.404;2022-08-01T08:06:51;2.40;;;2.20;;
18879;SDS011;9572;52.378;13.404;2022-08-01T08:09:18;2.10;;;2.00;;
18879;SDS011;9572;52.378;13.404;2022-08-01T08:14:22;2.70;;;2.50;;
18879;SDS011;9572;52.378;13.404;2022-08-01T08:16:49;3.10;;;2.80;;
18879;SDS011;9572;52.378;13.404;2022-08-01T08:19:16;20.15;;;16.55;;
18879;SDS011;9572;52.378;13.404;2022-08-01T08:21:43;4.03;;;3.72;;
18879;SDS011;9572;52.378;13.404;2022-08-01T08:24:10;3.60;;;2.90;;
18879;SDS011;9572;52.378;13.404;2022-08-01T08:26:46;3.60;;;3.30;;
18879;SDS011;9572;52.378;13.404;2022-08-01T08:29:13;4.55;;;4.15;;
18879;SDS011;9572;52.378;13.404;2022-08-01T08:31:41;5.18;;;4.68;;
18879;SDS011;9572;52.378;13.404;2022-08-01T08:34:09;6.47;;;5.80;;
18879;SDS011;9572;52.378;13.404;2022-08-01T08:36:36;7.97;;;6.43;;
18879;SDS011;9572;52.378;13.404;2022-08-01T08:39:03;5.43;;;4.93;;
18879;SDS011;9572;52.378;13.404;2022-08-01T08:41:30;7.43;;;5.75;;
18879;SDS011;9572;52.378;13.404;2022-08-01T08:43:57;7.40;;;5.57;;
18879;SDS011;9572;52.378;13.404;2022-08-01T08:46:26;5.10;;;4.57;;
18879;SDS011;9572;52.378;13.404;2022-08-01T08:48:55;5.43;;;4.90;;
18879;SDS011;9572;52.378;13.404;2022-08-01T08:51:23;4.90;;;4.40;;
18879;SDS011;9572;52.378;13.404;2022-08-01T08:53:53;3.80;;;3.45;;
18879;SDS011;9572;52.378;13.404;2022-08-01T08:56:21;2.80;;;2.60;;
18879;SDS011;9572;52.378;13.404;2022-08-01T08:58:50;2.60;;;2.22;;
18879;SDS011;9572;52.378;13.404;2022-08-01T09:01:18;2.70;;;2.45;;
18879;SDS011;9572;52.378;13.404;2022-08-01T09:03:45;2.10;;;2.00;;
18879;SDS011;9572;52.378;13.404;2022-08-01T09:06:13;1.83;;;1.73;;
18879;SDS011;9572;52.378;13.404;2022-08-01T09:08:40;2.47;;;1.90;;
18879;SDS011;9572;52.378;13.404;2022-08-01T09:11:07;2.00;;;1.77;;
18879;SDS011;9572;52.378;13.404;2022-08-01T09:13:34;1.80;;;1.70;;
18879;SDS011;9572;52.378;13.404;2022-08-01T09:16:01;2.75;;;2.03;;
18879;SDS011;9572;52.378;13.404;2022-08-01T09:18:29;2.25;;;1.40;;
18879;SDS011;9572;52.378;13.404;2022-08-01T09:21:12;1.50;;;1.20;;
18879;SDS011;9572;52.378;13.404;2022-08-01T09:23:43;1.50;;;1.17;;
18879;SDS011;9572;52.378;13.404;2022-08-01T09:26:12;1.50;;;1.25;;
18879;SDS011;9572;52.378;13.404;2022-08-01T09:28:41;1.10;;;1.10;;
18879;SDS011;9572;52.378;13.404;2022-08-01T09:31:08;2.00;;;1.23;;
18879;SDS011;9572;52.378;13.404;2022-08-01T09:33:47;1.08;;;1.08;;
18879;SDS011;9572;52.378;13.404;2022-08-01T09:36:17;1.65;;;1.55;;
18879;SDS011;9572;52.378;13.404;2022-08-01T09:38:45;1.25;;;1.20;;
18879;SDS011;9572;52.378;13.404;2022-08-01T09:41:12;2.90;;;1.50;;
18879;SDS011;9572;52.378;13.404;2022-08-01T09:43:39;3.20;;;1.70;;
18879;SDS011;9572;52.378;13.404;2022-08-01T09:46:08;3.38;;;1.60;;
18879;SDS011;9572;52.378;13.404;2022-08-01T09:48:37;1.58;;;1.48;;
18879;SDS011;9572;52.378;13.404;2022-08-01T09:51:05;3.35;;;1.20;;
18879;SDS011;9572;52.378;13.404;2022-08-01T09:53:44;1.27;;;1.20;;
18879;SDS011;9572;52.378;13.404;2022-08-01T09:56:13;1.30;;;1.20;;
18879;SDS011;9572;52.378;13.404;2022-08-01T09:58:50;0.82;;;0.80;;
18879;SDS011;9572;52.378;13.404;2022-08-01T10:01:19;1.95;;;0.90;;
18879;SDS011;9572;52.378;13.404;2022-08-01T10:03:49;1.33;;;1.10;;
18879;SDS011;9572;52.378;13.404;2022-08-01T10:06:30;1.13;;;1.13;;
18879;SDS011;9572;52.378;13.404;2022-08-01T10:08:58;1.30;;;0.95;;
18879;SDS011;9572;52.378;13.404;2022-08-01T10:11:25;0.95;;;0.95;;
18879;SDS011;9572;52.378;13.404;2022-08-01T10:13:54;1.20;;;1.10;;
18879;SDS011;9572;52.378;13.404;2022-08-01T10:16:22;1.90;;;1.00;;
18879;SDS011;9572;52.378;13.404;2022-08-01T10:18:50;0.90;;;0.90;;
18879;SDS011;9572;52.378;13.404;2022-08-01T10:21:18;1.48;;;1.33;;
18879;SDS011;9572;52.378;13.404;2022-08-01T10:23:46;3.33;;;1.13;;
18879;SDS011;9572;52.378;13.404;2022-08-01T10:26:15;1.42;;;1.00;;
18879;SDS011;9572;52.378;13.404;2022-08-01T10:28:43;2.70;;;1.20;;
18879;SDS011;9572;52.378;13.404;2022-08-01T10:31:14;1.45;;;1.35;;
18879;SDS011;9572;52.378;13.404;2022-08-01T10:33:44;1.27;;;1.10;;
18879;SDS011;9572;52.378;13.404;2022-08-01T10:36:11;0.90;;;0.90;;
18879;SDS011;9572;52.378;13.404;2022-08-01T10:38:39;0.85;;;0.80;;
18879;SDS011;9572;52.378;13.404;2022-08-01T10:41:06;1.23;;;0.90;;
18879;SDS011;9572;52.378;13.404;2022-08-01T10:43:35;0.80;;;0.80;;
18879;SDS011;9572;52.378;13.404;2022-08-01T10:46:03;1.10;;;0.93;;
18879;SDS011;9572;52.378;13.404;2022-08-01T10:48:31;0.80;;;0.80;;
18879;SDS011;9572;52.378;13.404;2022-08-01T10:51:05;2.88;;;1.00;;
18879;SDS011;9572;52.378;13.404;2022-08-01T10:53:34;1.13;;;1.00;;
18879;SDS011;9572;52.378;13.404;2022-08-01T10:56:01;1.00;;;0.85;;
18879;SDS011;9572;52.378;13.404;2022-08-01T10:58:31;0.85;;;0.70;;
18879;SDS011;9572;52.378;13.404;2022-08-01T11:04:05;1.27;;;0.77;;
18879;SDS011;9572;52.378;13.404;2022-08-01T11:06:42;1.77;;;1.10;;
18879;SDS011;9572;52.378;13.404;2022-08-01T11:09:22;2.17;;;1.00;;
18879;SDS011;9572;52.378;13.404;2022-08-01T11:11:57;2.70;;;1.10;;
18879;SDS011;9572;52.378;13.404;2022-08-01T11:14:30;0.90;;;0.90;;
18879;SDS011;9572;52.378;13.404;2022-08-01T11:20:05;3.50;;;0.77;;
18879;SDS011;9572;52.378;13.404;2022-08-01T11:28:44;1.23;;;0.90;;
18879;SDS011;9572;52.378;13.404;2022-08-01T11:31:32;1.55;;;0.90;;
18879;SDS011;9572;52.378;13.404;2022-08-01T11:34:00;1.00;;;0.90;;
18879;SDS011;9572;52.378;13.404;2022-08-01T11:36:27;1.13;;;0.88;;
18879;SDS011;9572;52.378;13.404;2022-08-01T11:39:11;1.38;;;0.90;;
18879;SDS011;9572;52.378;13.404;2022-08-01T11:41:41;1.10;;;1.00;;
18879;SDS011;9572;52.378;13.404;2022-08-01T11:44:09;3.58;;;0.95;;
18879;SDS011;9572;52.378;13.404;2022-08-01T11:46:44;1.67;;;1.23;;
18879;SDS011;9572;52.378;13.404;2022-08-01T11:49:23;2.53;;;0.90;;
18879;SDS011;9572;52.378;13.404;2022-08-01T11:52:00;6.75;;;0.82;;
18879;SDS011;9572;52.378;13.404;2022-08-01T11:54:29;1.65;;;0.88;;
18879;SDS011;9572;52.378;13.404;2022-08-01T11:56:58;1.13;;;0.70;;
18879;SDS011;9572;52.378;13.404;2022-08-01T11:59:26;4.05;;;0.90;;
18879;SDS011;9572;52.378;13.404;2022-08-01T12:01:53;3.15;;;0.80;;
18879;SDS011;9572;52.378;13.404;2022-08-01T12:04:20;2.95;;;0.80;;
18879;SDS011;9572;52.378;13.404;2022-08-01T12:06:49;1.60;;;0.75;;
18879;SDS011;9572;52.378;13.404;2022-08-01T12:09:17;2.47;;;0.90;;
18879;SDS011;9572;52.378;13.404;2022-08-01T12:11:44;0.80;;;0.80;;
18879;SDS011;9572;52.378;13.404;2022-08-01T12:14:15;3.30;;;1.10;;
18879;SDS011;9572;52.378;13.404;2022-08-01T12:16:51;2.97;;;1.02;;
18879;SDS011;9572;52.378;13.404;2022-08-01T12:19:19;4.28;;;0.98;;
18879;SDS011;9572;52.378;13.404;2022-08-01T12:22:05;1.38;;;0.93;;
18879;SDS011;9572;52.378;13.404;2022-08-01T12:24:37;1.17;;;1.00;;
18879;SDS011;9572;52.378;13.404;2022-08-01T12:27:07;3.70;;;0.73;;
18879;SDS011;9572;52.378;13.404;2022-08-01T12:29:36;2.03;;;1.00;;
18879;SDS011;9572;52.378;13.404;2022-08-01T12:32:20;3.00;;;0.68;;
18879;SDS011;9572;52.378;13.404;2022-08-01T12:34:48;2.88;;;0.68;;
18879;SDS011;9572;52.378;13.404;2022-08-01T12:37:17;1.10;;;1.00;;
18879;SDS011;9572;52.378;13.404;2022-08-01T12:39:44;2.58;;;0.70;;
18879;SDS011;9572;52.378;13.404;2022-08-01T12:42:11;1.05;;;0.80;;
18879;SDS011;9572;52.378;13.404;2022-08-01T12:44:39;1.00;;;0.75;;
18879;SDS011;9572;52.378;13.404;2022-08-01T12:47:06;1.20;;;0.75;;
18879;SDS011;9572;52.378;13.404;2022-08-01T12:49:34;1.55;;;1.17;;
18879;SDS011;9572;52.378;13.404;2022-08-01T12:52:03;3.55;;;0.65;;
18879;SDS011;9572;52.378;13.404;2022-08-01T12:54:32;2.40;;;0.90;;
18879;SDS011;9572;52.378;13.404;2022-08-01T12:57:29;2.15;;;0.90;;
18879;SDS011;9572;52.378;13.404;2022-08-01T13:00:10;3.22;;;0.77;;
18879;SDS011;9572;52.378;13.404;2022-08-01T13:02:39;2.63;;;1.10;;
18879;SDS011;9572;52.378;13.404;2022-08-01T13:05:08;1.48;;;0.98;;
18879;SDS011;9572;52.378;13.404;2022-08-01T13:07:39;0.80;;;0.70;;
18879;SDS011;9572;52.378;13.404;2022-08-01T13:10:10;4.22;;;1.13;;
18879;SDS011;9572;52.378;13.404;2022-08-01T13:12:41;3.05;;;0.70;;
18879;SDS011;9572;52.378;13.404;2022-08-01T13:15:19;1.38;;;0.80;;
18879;SDS011;9572;52.378;13.404;2022-08-01T13:17:48;2.38;;;0.80;;
18879;SDS011;9572;52.378;13.404;2022-08-01T13:20:22;2.50;;;0.80;;
18879;SDS011;9572;52.378;13.404;2022-08-01T13:22:53;1.30;;;0.70;;
18879;SDS011;9572;52.378;13.404;2022-08-01T13:25:22;0.90;;;0.82;;
18879;SDS011;9572;52.378;13.404;2022-08-01T13:27:49;3.72;;;0.90;;
18879;SDS011;9572;52.378;13.404;2022-08-01T13:30:36;1.30;;;0.80;;
18879;SDS011;9572;52.378;13.404;2022-08-01T13:33:03;1.20;;;0.70;;
18879;SDS011;9572;52.378;13.404;2022-08-01T13:35:30;0.70;;;0.70;;
18879;SDS011;9572;52.378;13.404;2022-08-01T13:37:57;1.48;;;0.60;;
18879;SDS011;9572;52.378;13.404;2022-08-01T13:40:26;2.60;;;0.55;;
18879;SDS011;9572;52.378;13.404;2022-08-01T13:42:54;1.85;;;0.70;;
18879;SDS011;9572;52.378;13.404;2022-08-01T13:45:24;0.60;;;0.60;;
18879;SDS011;9572;52.378;13.404;2022-08-01T13:47:50;2.08;;;0.70;;
18879;SDS011;9572;52.378;13.404;2022-08-01T13:50:17;0.60;;;0.60;;
18879;SDS011;9572;52.378;13.404;2022-08-01T13:52:44;0.45;;;0.45;;
18879;SDS011;9572;52.378;13.404;2022-08-01T13:55:11;1.20;;;0.30;;
18879;SDS011;9572;52.378;13.404;2022-08-01T13:57:40;0.50;;;0.38;;
18879;SDS011;9572;52.378;13.404;2022-08-01T14:00:07;1.38;;;0.50;;
18879;SDS011;9572;52.378;13.404;2022-08-01T14:02:35;1.00;;;0.40;;
18879;SDS011;9572;52.378;13.404;2022-08-01T14:05:02;0.90;;;0.40;;
18879;SDS011;9572;52.378;13.404;2022-08-01T14:07:30;2.45;;;0.60;;
18879;SDS011;9572;52.378;13.404;2022-08-01T14:09:57;0.60;;;0.50;;
18879;SDS011;9572;52.378;13.404;2022-08-01T14:12:23;0.70;;;0.32;;
18879;SDS011;9572;52.378;13.404;2022-08-01T14:14:54;0.95;;;0.40;;
18879;SDS011;9572;52.378;13.404;2022-08-01T14:17:24;2.15;;;0.50;;
18879;SDS011;9572;52.378;13.404;2022-08-01T14:19:51;1.77;;;0.50;;
18879;SDS011;9572;52.378;13.404;2022-08-01T14:22:18;1.40;;;0.68;;
18879;SDS011;9572;52.378;13.404;2022-08-01T14:24:45;0.68;;;0.30;;
18879;SDS011;9572;52.378;13.404;2022-08-01T14:27:12;1.60;;;0.50;;
18879;SDS011;9572;52.378;13.404;2022-08-01T14:29:41;0.88;;;0.40;;
18879;SDS011;9572;52.378;13.404;2022-08-01T14:32:09;1.33;;;0.60;;
18879;SDS011;9572;52.378;13.404;2022-08-01T14:34:36;0.55;;;0.30;;
18879;SDS011;9572;52.378;13.404;2022-08-01T14:37:03;0.68;;;0.40;;
18879;SDS011;9572;52.378;13.404;2022-08-01T14:39:30;0.60;;;0.50;;
18879;SDS011;9572;52.378;13.404;2022-08-01T14:41:57;0.57;;;0.30;;
18879;SDS011;9572;52.378;13.404;2022-08-01T14:44:24;0.40;;;0.30;;
18879;SDS011;9572;52.378;13.404;2022-08-01T14:46:51;0.30;;;0.30;;
18879;SDS011;9572;52.378;13.404;2022-08-01T14:49:19;0.60;;;0.30;;
18879;SDS011;9572;52.378;13.404;2022-08-01T14:51:46;1.80;;;0.50;;
18879;SDS011;9572;52.378;13.404;2022-08-01T14:54:13;2.70;;;0.40;;
18879;SDS011;9572;52.378;13.404;2022-08-01T14:56:40;1.75;;;0.40;;
18879;SDS011;9572;52.378;13.404;2022-08-01T14:59:09;0.28;;;0.28;;
18879;SDS011;9572;52.378;13.404;2022-08-01T15:01:36;0.52;;;0.50;;
18879;SDS011;9572;52.378;13.404;2022-08-01T15:04:03;0.35;;;0.32;;
18879;SDS011;9572;52.378;13.404;2022-08-01T15:06:31;0.40;;;0.35;;
18879;SDS011;9572;52.378;13.404;2022-08-01T15:09:00;0.95;;;0.30;;
18879;SDS011;9572;52.378;13.404;2022-08-01T15:11:27;2.10;;;0.40;;
18879;SDS011;9572;52.378;13.404;2022-08-01T15:13:55;0.73;;;0.40;;
18879;SDS011;9572;52.378;13.404;2022-08-01T15:16:39;0.40;;;0.40;;